sensor_id;sensor_type;location;lat;lon;timestamp;temperature;humidity
53926;DHT22;39836;52.754;6.866;2023-03-23T00:02:03;11.20;83.60
53926;DHT22;39836;52.754;6.866;2023-03-23T00:04:28;11.10;83.40
53926;DHT22;39836;52.754;6.866;2023-03-23T00:06:54;11.20;83.50
53926;DHT22;39836;52.754;6.866;2023-03-23T00:09:20;11.10;83.50
53926;DHT22;39836;52.754;6.866;2023-03-23T00:11:49;11.10;83.50
53926;DHT22;39836;52.754;6.866;2023-03-23T00:14:16;11.10;83.50
53926;DHT22;39836;52.754;6.866;2023-03-23T00:16:42;11.10;83.50
53926;DHT22;39836;52.754;6.866;2023-03-23T00:19:10;11.10;83.50
53926;DHT22;39836;52.754;6.866;2023-03-23T00:21:39;11.10;83.50
53926;DHT22;39836;52.754;6.866;2023-03-23T00:24:15;11.10;83.50
53926;DHT22;39836;52.754;6.866;2023-03-23T00:26:42;11.10;83.40
53926;DHT22;39836;52.754;6.866;2023-03-23T00:29:20;11.10;83.50
53926;DHT22;39836;52.754;6.866;2023-03-23T00:31:48;11.10;83.50
53926;DHT22;39836;52.754;6.866;2023-03-23T00:34:20;11.10;83.40
53926;DHT22;39836;52.754;6.866;2023-03-23T00:36:50;11.10;83.30
53926;DHT22;39836;52.754;6.866;2023-03-23T00:39:17;11.10;83.30
53926;DHT22;39836;52.754;6.866;2023-03-23T00:41:44;11.10;83.30
53926;DHT22;39836;52.754;6.866;2023-03-23T00:44:10;11.10;83.20
53926;DHT22;39836;52.754;6.866;2023-03-23T00:46:45;11.10;83.20
53926;DHT22;39836;52.754;6.866;2023-03-23T00:49:16;11.10;83.20
53926;DHT22;39836;52.754;6.866;2023-03-23T00:51:42;11.20;83.20
53926;DHT22;39836;52.754;6.866;2023-03-23T00:54:09;11.20;83.10
53926;DHT22;39836;52.754;6.866;2023-03-23T00:56:36;11.20;83.00
53926;DHT22;39836;52.754;6.866;2023-03-23T00:59:02;11.20;82.80
53926;DHT22;39836;52.754;6.866;2023-03-23T01:01:29;11.20;82.70
53926;DHT22;39836;52.754;6.866;2023-03-23T01:03:55;11.20;82.60
53926;DHT22;39836;52.754;6.866;2023-03-23T01:06:27;11.30;82.60
53926;DHT22;39836;52.754;6.866;2023-03-23T01:08:54;11.30;82.60
53926;DHT22;39836;52.754;6.866;2023-03-23T01:11:20;11.30;82.50
53926;DHT22;39836;52.754;6.866;2023-03-23T01:13:46;11.30;82.30
53926;DHT22;39836;52.754;6.866;2023-03-23T01:16:12;11.30;82.00
53926;DHT22;39836;52.754;6.866;2023-03-23T01:18:39;11.30;81.90
53926;DHT22;39836;52.754;6.866;2023-03-23T01:21:06;11.30;81.90
53926;DHT22;39836;52.754;6.866;2023-03-23T01:23:34;11.30;82.00
53926;DHT22;39836;52.754;6.866;2023-03-23T01:26:04;11.20;82.10
53926;DHT22;39836;52.754;6.866;2023-03-23T01:28:31;11.20;82.20
53926;DHT22;39836;52.754;6.866;2023-03-23T01:31:02;11.20;82.20
53926;DHT22;39836;52.754;6.866;2023-03-23T01:33:28;11.20;82.20
53926;DHT22;39836;52.754;6.866;2023-03-23T01:35:54;11.20;82.20
53926;DHT22;39836;52.754;6.866;2023-03-23T01:38:20;11.20;82.20
53926;DHT22;39836;52.754;6.866;2023-03-23T01:40:46;11.20;82.20
53926;DHT22;39836;52.754;6.866;2023-03-23T01:43:14;11.20;82.20
53926;DHT22;39836;52.754;6.866;2023-03-23T01:45:40;11.20;82.10
53926;DHT22;39836;52.754;6.866;2023-03-23T01:48:20;11.20;82.00
53926;DHT22;39836;52.754;6.866;2023-03-23T01:50:59;11.20;82.00
53926;DHT22;39836;52.754;6.866;2023-03-23T01:53:37;11.20;82.00
53926;DHT22;39836;52.754;6.866;2023-03-23T01:56:04;11.20;81.90
53926;DHT22;39836;52.754;6.866;2023-03-23T01:58:33;11.20;81.90
53926;DHT22;39836;52.754;6.866;2023-03-23T02:01:04;11.20;81.80
53926;DHT22;39836;52.754;6.866;2023-03-23T02:03:32;11.20;81.70
53926;DHT22;39836;52.754;6.866;2023-03-23T02:06:00;11.20;81.80
53926;DHT22;39836;52.754;6.866;2023-03-23T02:08:29;11.20;81.80
53926;DHT22;39836;52.754;6.866;2023-03-23T02:10:58;11.20;81.80
53926;DHT22;39836;52.754;6.866;2023-03-23T02:13:24;11.20;81.80
53926;DHT22;39836;52.754;6.866;2023-03-23T02:16:19;11.20;81.80
53926;DHT22;39836;52.754;6.866;2023-03-23T02:26:53;11.20;81.70
53926;DHT22;39836;52.754;6.866;2023-03-23T02:32:25;11.20;81.80
53926;DHT22;39836;52.754;6.866;2023-03-23T02:35:08;11.20;81.80
53926;DHT22;39836;52.754;6.866;2023-03-23T02:38:00;11.20;81.80
53926;DHT22;39836;52.754;6.866;2023-03-23T02:40:48;11.20;81.90
53926;DHT22;39836;52.754;6.866;2023-03-23T02:43:17;11.20;81.80
53926;DHT22;39836;52.754;6.866;2023-03-23T02:45:44;11.20;81.90
53926;DHT22;39836;52.754;6.866;2023-03-23T02:48:13;11.20;82.00
53926;DHT22;39836;52.754;6.866;2023-03-23T02:50:43;11.20;81.90
53926;DHT22;39836;52.754;6.866;2023-03-23T02:53:12;11.20;82.00
53926;DHT22;39836;52.754;6.866;2023-03-23T02:55:41;11.20;82.10
53926;DHT22;39836;52.754;6.866;2023-03-23T02:58:09;11.20;82.10
53926;DHT22;39836;52.754;6.866;2023-03-23T03:00:36;11.20;82.00
53926;DHT22;39836;52.754;6.866;2023-03-23T03:03:03;11.20;82.00
53926;DHT22;39836;52.754;6.866;2023-03-23T03:06:02;11.20;82.00
53926;DHT22;39836;52.754;6.866;2023-03-23T03:11:18;11.20;82.00
53926;DHT22;39836;52.754;6.866;2023-03-23T03:16:29;11.20;81.90
53926;DHT22;39836;52.754;6.866;2023-03-23T03:19:43;11.20;81.80
53926;DHT22;39836;52.754;6.866;2023-03-23T03:22:01;11.20;81.80
53926;DHT22;39836;52.754;6.866;2023-03-23T03:24:28;11.30;81.80
53926;DHT22;39836;52.754;6.866;2023-03-23T03:26:57;11.30;81.70
53926;DHT22;39836;52.754;6.866;2023-03-23T03:29:32;11.30;81.60
53926;DHT22;39836;52.754;6.866;2023-03-23T03:31:59;11.30;81.30
53926;DHT22;39836;52.754;6.866;2023-03-23T03:34:25;11.40;81.40
53926;DHT22;39836;52.754;6.866;2023-03-23T03:36:54;11.40;81.30
53926;DHT22;39836;52.754;6.866;2023-03-23T03:39:20;11.40;81.20
53926;DHT22;39836;52.754;6.866;2023-03-23T03:41:47;11.40;81.30
53926;DHT22;39836;52.754;6.866;2023-03-23T03:44:13;11.40;81.30
53926;DHT22;39836;52.754;6.866;2023-03-23T03:46:39;11.50;81.30
53926;DHT22;39836;52.754;6.866;2023-03-23T03:49:07;11.50;81.40
53926;DHT22;39836;52.754;6.866;2023-03-23T03:51:33;11.50;81.40
53926;DHT22;39836;52.754;6.866;2023-03-23T03:53:59;11.50;81.40
53926;DHT22;39836;52.754;6.866;2023-03-23T03:56:25;11.50;81.40
53926;DHT22;39836;52.754;6.866;2023-03-23T03:58:51;11.50;81.40
53926;DHT22;39836;52.754;6.866;2023-03-23T04:01:20;11.50;81.40
53926;DHT22;39836;52.754;6.866;2023-03-23T04:03:49;11.50;81.30
53926;DHT22;39836;52.754;6.866;2023-03-23T04:06:16;11.50;81.40
53926;DHT22;39836;52.754;6.866;2023-03-23T04:08:43;11.50;81.30
53926;DHT22;39836;52.754;6.866;2023-03-23T04:11:11;11.50;81.40
53926;DHT22;39836;52.754;6.866;2023-03-23T04:13:38;11.50;81.40
53926;DHT22;39836;52.754;6.866;2023-03-23T04:16:04;11.50;81.50
53926;DHT22;39836;52.754;6.866;2023-03-23T04:18:30;11.50;81.50
53926;DHT22;39836;52.754;6.866;2023-03-23T04:20:58;11.50;81.60
53926;DHT22;39836;52.754;6.866;2023-03-23T04:23:26;11.50;81.60
53926;DHT22;39836;52.754;6.866;2023-03-23T04:25:53;11.40;81.50
53926;DHT22;39836;52.754;6.866;2023-03-23T04:28:23;11.40;81.60
53926;DHT22;39836;52.754;6.866;2023-03-23T04:30:51;11.40;81.60
53926;DHT22;39836;52.754;6.866;2023-03-23T04:33:21;11.50;81.70
53926;DHT22;39836;52.754;6.866;2023-03-23T04:35:48;11.40;81.60
53926;DHT22;39836;52.754;6.866;2023-03-23T04:38:16;11.40;81.60
53926;DHT22;39836;52.754;6.866;2023-03-23T04:40:43;11.40;81.60
53926;DHT22;39836;52.754;6.866;2023-03-23T04:43:09;11.50;81.60
53926;DHT22;39836;52.754;6.866;2023-03-23T04:45:38;11.40;81.60
53926;DHT22;39836;52.754;6.866;2023-03-23T04:48:07;11.50;81.50
53926;DHT22;39836;52.754;6.866;2023-03-23T04:50:34;11.50;81.60
53926;DHT22;39836;52.754;6.866;2023-03-23T04:53:01;11.40;81.50
53926;DHT22;39836;52.754;6.866;2023-03-23T04:55:32;11.40;81.50
53926;DHT22;39836;52.754;6.866;2023-03-23T04:58:05;11.50;81.30
53926;DHT22;39836;52.754;6.866;2023-03-23T05:00:32;11.50;81.40
53926;DHT22;39836;52.754;6.866;2023-03-23T05:02:58;11.50;81.30
53926;DHT22;39836;52.754;6.866;2023-03-23T05:05:24;11.50;81.30
53926;DHT22;39836;52.754;6.866;2023-03-23T05:07:53;11.50;81.30
53926;DHT22;39836;52.754;6.866;2023-03-23T05:10:19;11.50;81.40
53926;DHT22;39836;52.754;6.866;2023-03-23T05:12:45;11.50;81.30
53926;DHT22;39836;52.754;6.866;2023-03-23T05:15:12;11.50;81.30
53926;DHT22;39836;52.754;6.866;2023-03-23T05:17:38;11.60;81.20
53926;DHT22;39836;52.754;6.866;2023-03-23T05:20:07;11.60;81.20
53926;DHT22;39836;52.754;6.866;2023-03-23T05:22:37;11.60;81.20
53926;DHT22;39836;52.754;6.866;2023-03-23T05:25:05;11.60;81.20
53926;DHT22;39836;52.754;6.866;2023-03-23T05:27:31;11.60;81.20
53926;DHT22;39836;52.754;6.866;2023-03-23T05:29:58;11.60;81.20
53926;DHT22;39836;52.754;6.866;2023-03-23T05:32:25;11.60;81.40
53926;DHT22;39836;52.754;6.866;2023-03-23T05:35:01;11.50;81.60
53926;DHT22;39836;52.754;6.866;2023-03-23T05:37:29;11.40;81.90
53926;DHT22;39836;52.754;6.866;2023-03-23T05:39:58;11.20;82.20
53926;DHT22;39836;52.754;6.866;2023-03-23T05:42:30;11.00;82.50
53926;DHT22;39836;52.754;6.866;2023-03-23T05:44:58;10.80;82.70
53926;DHT22;39836;52.754;6.866;2023-03-23T05:47:24;10.70;82.80
53926;DHT22;39836;52.754;6.866;2023-03-23T05:49:51;10.60;82.80
53926;DHT22;39836;52.754;6.866;2023-03-23T05:52:17;10.50;82.90
53926;DHT22;39836;52.754;6.866;2023-03-23T05:54:44;10.30;83.00
53926;DHT22;39836;52.754;6.866;2023-03-23T05:57:10;10.20;83.20
53926;DHT22;39836;52.754;6.866;2023-03-23T05:59:36;10.00;83.40
53926;DHT22;39836;52.754;6.866;2023-03-23T06:02:03;10.00;83.60
53926;DHT22;39836;52.754;6.866;2023-03-23T06:04:31;9.90;83.70
53926;DHT22;39836;52.754;6.866;2023-03-23T06:07:00;9.90;83.90
53926;DHT22;39836;52.754;6.866;2023-03-23T06:09:27;9.90;84.00
53926;DHT22;39836;52.754;6.866;2023-03-23T06:11:53;9.90;84.10
53926;DHT22;39836;52.754;6.866;2023-03-23T06:14:19;9.90;84.10
53926;DHT22;39836;52.754;6.866;2023-03-23T06:16:44;9.90;84.20
53926;DHT22;39836;52.754;6.866;2023-03-23T06:19:10;9.90;84.30
53926;DHT22;39836;52.754;6.866;2023-03-23T06:21:38;9.90;84.30
53926;DHT22;39836;52.754;6.866;2023-03-23T06:24:04;10.00;84.40
53926;DHT22;39836;52.754;6.866;2023-03-23T06:26:35;10.00;84.50
53926;DHT22;39836;52.754;6.866;2023-03-23T06:29:03;10.00;84.50
53926;DHT22;39836;52.754;6.866;2023-03-23T06:31:37;10.10;84.40
53926;DHT22;39836;52.754;6.866;2023-03-23T06:34:04;10.10;84.30
53926;DHT22;39836;52.754;6.866;2023-03-23T06:36:30;10.10;84.30
53926;DHT22;39836;52.754;6.866;2023-03-23T06:38:56;10.10;84.20
53926;DHT22;39836;52.754;6.866;2023-03-23T06:41:22;10.20;84.20
53926;DHT22;39836;52.754;6.866;2023-03-23T06:43:47;10.20;84.00
53926;DHT22;39836;52.754;6.866;2023-03-23T06:46:13;10.30;83.80
53926;DHT22;39836;52.754;6.866;2023-03-23T06:48:38;10.30;83.80
53926;DHT22;39836;52.754;6.866;2023-03-23T06:51:05;10.40;83.70
53926;DHT22;39836;52.754;6.866;2023-03-23T06:53:31;10.50;83.70
53926;DHT22;39836;52.754;6.866;2023-03-23T06:55:56;10.50;83.80
53926;DHT22;39836;52.754;6.866;2023-03-23T06:58:22;10.60;83.70
53926;DHT22;39836;52.754;6.866;2023-03-23T07:00:56;10.70;83.80
53926;DHT22;39836;52.754;6.866;2023-03-23T07:03:23;10.80;83.60
53926;DHT22;39836;52.754;6.866;2023-03-23T07:05:48;10.80;83.00
53926;DHT22;39836;52.754;6.866;2023-03-23T07:08:14;10.80;83.00
53926;DHT22;39836;52.754;6.866;2023-03-23T07:10:40;10.90;83.10
53926;DHT22;39836;52.754;6.866;2023-03-23T07:13:06;10.90;82.90
53926;DHT22;39836;52.754;6.866;2023-03-23T07:15:32;10.90;82.90
53926;DHT22;39836;52.754;6.866;2023-03-23T07:17:58;10.90;82.80
53926;DHT22;39836;52.754;6.866;2023-03-23T07:20:23;11.00;82.80
53926;DHT22;39836;52.754;6.866;2023-03-23T07:22:49;11.00;83.00
53926;DHT22;39836;52.754;6.866;2023-03-23T07:25:16;10.90;83.00
53926;DHT22;39836;52.754;6.866;2023-03-23T07:27:44;11.00;83.30
53926;DHT22;39836;52.754;6.866;2023-03-23T07:30:10;11.00;83.20
53926;DHT22;39836;52.754;6.866;2023-03-23T07:32:36;11.00;83.40
53926;DHT22;39836;52.754;6.866;2023-03-23T07:35:02;11.00;83.60
53926;DHT22;39836;52.754;6.866;2023-03-23T07:37:29;11.00;83.60
53926;DHT22;39836;52.754;6.866;2023-03-23T07:39:55;11.00;83.60
53926;DHT22;39836;52.754;6.866;2023-03-23T07:42:21;11.00;83.60
53926;DHT22;39836;52.754;6.866;2023-03-23T07:44:46;11.00;83.70
53926;DHT22;39836;52.754;6.866;2023-03-23T07:47:12;11.00;83.60
53926;DHT22;39836;52.754;6.866;2023-03-23T07:49:38;11.10;83.60
53926;DHT22;39836;52.754;6.866;2023-03-23T07:52:04;11.10;83.40
53926;DHT22;39836;52.754;6.866;2023-03-23T07:54:30;11.20;83.40
53926;DHT22;39836;52.754;6.866;2023-03-23T07:56:56;11.20;83.20
53926;DHT22;39836;52.754;6.866;2023-03-23T07:59:22;11.20;82.70
53926;DHT22;39836;52.754;6.866;2023-03-23T08:01:48;11.30;82.40
53926;DHT22;39836;52.754;6.866;2023-03-23T08:04:13;11.30;82.20
53926;DHT22;39836;52.754;6.866;2023-03-23T08:06:40;11.40;82.40
53926;DHT22;39836;52.754;6.866;2023-03-23T08:09:07;11.40;82.40
53926;DHT22;39836;52.754;6.866;2023-03-23T08:11:38;11.50;81.70
53926;DHT22;39836;52.754;6.866;2023-03-23T08:14:04;11.50;81.80
53926;DHT22;39836;52.754;6.866;2023-03-23T08:16:31;11.50;82.00
53926;DHT22;39836;52.754;6.866;2023-03-23T08:18:57;11.60;81.80
53926;DHT22;39836;52.754;6.866;2023-03-23T08:21:23;11.60;82.10
53926;DHT22;39836;52.754;6.866;2023-03-23T08:23:49;11.60;81.50
53926;DHT22;39836;52.754;6.866;2023-03-23T08:26:15;11.60;81.50
53926;DHT22;39836;52.754;6.866;2023-03-23T08:28:42;11.70;81.90
53926;DHT22;39836;52.754;6.866;2023-03-23T08:31:14;11.70;81.80
53926;DHT22;39836;52.754;6.866;2023-03-23T08:33:40;11.70;81.90
53926;DHT22;39836;52.754;6.866;2023-03-23T08:36:08;11.80;82.50
53926;DHT22;39836;52.754;6.866;2023-03-23T08:38:34;11.80;82.50
53926;DHT22;39836;52.754;6.866;2023-03-23T08:41:03;11.70;82.30
53926;DHT22;39836;52.754;6.866;2023-03-23T08:43:33;11.60;82.10
53926;DHT22;39836;52.754;6.866;2023-03-23T08:45:59;11.60;82.20
53926;DHT22;39836;52.754;6.866;2023-03-23T08:48:25;11.70;82.40
53926;DHT22;39836;52.754;6.866;2023-03-23T08:50:51;11.60;82.40
53926;DHT22;39836;52.754;6.866;2023-03-23T08:53:20;11.70;82.40
53926;DHT22;39836;52.754;6.866;2023-03-23T08:55:47;11.70;82.30
53926;DHT22;39836;52.754;6.866;2023-03-23T08:58:13;11.70;82.50
53926;DHT22;39836;52.754;6.866;2023-03-23T09:00:39;11.70;82.40
53926;DHT22;39836;52.754;6.866;2023-03-23T09:03:05;11.70;82.30
53926;DHT22;39836;52.754;6.866;2023-03-23T09:05:31;11.80;82.10
53926;DHT22;39836;52.754;6.866;2023-03-23T09:07:57;11.80;82.00
53926;DHT22;39836;52.754;6.866;2023-03-23T09:10:27;11.80;81.60
53926;DHT22;39836;52.754;6.866;2023-03-23T09:12:54;11.80;81.90
53926;DHT22;39836;52.754;6.866;2023-03-23T09:15:20;11.90;81.30
53926;DHT22;39836;52.754;6.866;2023-03-23T09:17:48;11.90;82.00
53926;DHT22;39836;52.754;6.866;2023-03-23T09:20:18;11.90;82.00
53926;DHT22;39836;52.754;6.866;2023-03-23T09:22:47;11.90;81.90
53926;DHT22;39836;52.754;6.866;2023-03-23T09:25:16;11.80;81.80
53926;DHT22;39836;52.754;6.866;2023-03-23T09:27:44;11.90;81.80
53926;DHT22;39836;52.754;6.866;2023-03-23T09:30:13;11.80;81.70
53926;DHT22;39836;52.754;6.866;2023-03-23T09:32:40;11.80;81.60
53926;DHT22;39836;52.754;6.866;2023-03-23T09:35:08;11.80;81.50
53926;DHT22;39836;52.754;6.866;2023-03-23T09:37:35;11.80;81.70
53926;DHT22;39836;52.754;6.866;2023-03-23T09:40:02;11.80;81.90
53926;DHT22;39836;52.754;6.866;2023-03-23T09:42:46;11.90;81.80
53926;DHT22;39836;52.754;6.866;2023-03-23T09:45:55;11.90;81.70
53926;DHT22;39836;52.754;6.866;2023-03-23T09:51:43;12.00;81.40
53926;DHT22;39836;52.754;6.866;2023-03-23T09:54:40;12.10;81.70
53926;DHT22;39836;52.754;6.866;2023-03-23T09:57:41;12.40;82.00
53926;DHT22;39836;52.754;6.866;2023-03-23T10:00:48;12.40;81.20
53926;DHT22;39836;52.754;6.866;2023-03-23T10:03:25;12.30;81.30
53926;DHT22;39836;52.754;6.866;2023-03-23T10:05:53;12.30;81.50
53926;DHT22;39836;52.754;6.866;2023-03-23T10:08:23;12.30;81.20
53926;DHT22;39836;52.754;6.866;2023-03-23T10:15:49;13.00;81.30
53926;DHT22;39836;52.754;6.866;2023-03-23T10:21:40;13.20;80.40
53926;DHT22;39836;52.754;6.866;2023-03-23T10:24:12;13.30;80.70
53926;DHT22;39836;52.754;6.866;2023-03-23T10:29:39;13.50;80.10
53926;DHT22;39836;52.754;6.866;2023-03-23T10:32:15;13.50;80.30
53926;DHT22;39836;52.754;6.866;2023-03-23T10:34:50;13.40;79.90
53926;DHT22;39836;52.754;6.866;2023-03-23T10:37:22;13.40;79.30
53926;DHT22;39836;52.754;6.866;2023-03-23T10:39:57;13.40;79.80
53926;DHT22;39836;52.754;6.866;2023-03-23T10:42:32;13.60;79.60
53926;DHT22;39836;52.754;6.866;2023-03-23T10:45:27;13.80;79.60
53926;DHT22;39836;52.754;6.866;2023-03-23T10:48:17;13.80;79.40
53926;DHT22;39836;52.754;6.866;2023-03-23T10:50:48;13.70;79.00
53926;DHT22;39836;52.754;6.866;2023-03-23T10:53:25;13.70;79.60
53926;DHT22;39836;52.754;6.866;2023-03-23T10:55:51;13.60;78.80
53926;DHT22;39836;52.754;6.866;2023-03-23T10:58:33;13.70;78.60
53926;DHT22;39836;52.754;6.866;2023-03-23T11:01:01;13.80;79.10
53926;DHT22;39836;52.754;6.866;2023-03-23T11:03:44;13.70;79.10
53926;DHT22;39836;52.754;6.866;2023-03-23T11:06:27;13.40;77.60
53926;DHT22;39836;52.754;6.866;2023-03-23T11:08:58;13.40;78.90
53926;DHT22;39836;52.754;6.866;2023-03-23T11:11:39;13.50;79.30
53926;DHT22;39836;52.754;6.866;2023-03-23T11:14:24;13.70;78.80
53926;DHT22;39836;52.754;6.866;2023-03-23T11:16:53;13.90;79.10
53926;DHT22;39836;52.754;6.866;2023-03-23T11:19:29;14.10;79.50
53926;DHT22;39836;52.754;6.866;2023-03-23T11:22:08;14.30;78.80
53926;DHT22;39836;52.754;6.866;2023-03-23T11:24:44;14.50;79.00
53926;DHT22;39836;52.754;6.866;2023-03-23T11:27:11;14.70;78.30
53926;DHT22;39836;52.754;6.866;2023-03-23T11:29:53;14.80;77.90
53926;DHT22;39836;52.754;6.866;2023-03-23T11:32:23;14.80;78.00
53926;DHT22;39836;52.754;6.866;2023-03-23T11:34:57;14.90;78.30
53926;DHT22;39836;52.754;6.866;2023-03-23T11:39:58;15.10;78.20
53926;DHT22;39836;52.754;6.866;2023-03-23T11:42:34;15.20;77.90
53926;DHT22;39836;52.754;6.866;2023-03-23T11:45:19;15.30;77.50
53926;DHT22;39836;52.754;6.866;2023-03-23T11:51:01;14.90;76.80
53926;DHT22;39836;52.754;6.866;2023-03-23T11:53:50;14.50;76.30
53926;DHT22;39836;52.754;6.866;2023-03-23T11:56:36;14.30;77.00
53926;DHT22;39836;52.754;6.866;2023-03-23T11:59:05;14.00;77.10
53926;DHT22;39836;52.754;6.866;2023-03-23T12:07:58;13.60;77.60
53926;DHT22;39836;52.754;6.866;2023-03-23T12:18:55;14.40;77.70
53926;DHT22;39836;52.754;6.866;2023-03-23T12:21:36;14.30;78.20
53926;DHT22;39836;52.754;6.866;2023-03-23T12:24:33;14.60;79.10
53926;DHT22;39836;52.754;6.866;2023-03-23T12:34:43;15.50;77.00
53926;DHT22;39836;52.754;6.866;2023-03-23T12:40:28;15.70;76.50
53926;DHT22;39836;52.754;6.866;2023-03-23T12:43:05;15.50;76.20
53926;DHT22;39836;52.754;6.866;2023-03-23T12:48:24;15.60;76.00
53926;DHT22;39836;52.754;6.866;2023-03-23T12:53:30;15.20;76.10
53926;DHT22;39836;52.754;6.866;2023-03-23T12:56:21;15.10;76.20
53926;DHT22;39836;52.754;6.866;2023-03-23T13:01:44;15.40;76.90
53926;DHT22;39836;52.754;6.866;2023-03-23T13:04:18;15.70;76.10
53926;DHT22;39836;52.754;6.866;2023-03-23T13:06:47;15.70;75.30
53926;DHT22;39836;52.754;6.866;2023-03-23T13:12:04;16.30;76.30
53926;DHT22;39836;52.754;6.866;2023-03-23T13:23:25;16.90;72.30
53926;DHT22;39836;52.754;6.866;2023-03-23T13:25:56;16.70;72.80
53926;DHT22;39836;52.754;6.866;2023-03-23T13:28:27;17.00;73.80
53926;DHT22;39836;52.754;6.866;2023-03-23T13:30:59;17.40;73.20
53926;DHT22;39836;52.754;6.866;2023-03-23T13:33:29;17.20;71.90
53926;DHT22;39836;52.754;6.866;2023-03-23T13:35:55;16.70;71.90
53926;DHT22;39836;52.754;6.866;2023-03-23T13:38:27;16.20;72.90
53926;DHT22;39836;52.754;6.866;2023-03-23T13:40:54;15.90;72.50
53926;DHT22;39836;52.754;6.866;2023-03-23T13:43:33;15.70;72.70
53926;DHT22;39836;52.754;6.866;2023-03-23T13:46:29;15.30;71.70
53926;DHT22;39836;52.754;6.866;2023-03-23T13:49:16;15.10;71.60
53926;DHT22;39836;52.754;6.866;2023-03-23T13:54:39;14.90;73.30
53926;DHT22;39836;52.754;6.866;2023-03-23T13:57:19;14.80;73.90
53926;DHT22;39836;52.754;6.866;2023-03-23T13:59:48;14.40;73.50
53926;DHT22;39836;52.754;6.866;2023-03-23T14:02:29;14.20;74.80
53926;DHT22;39836;52.754;6.866;2023-03-23T14:04:56;14.70;76.80
53926;DHT22;39836;52.754;6.866;2023-03-23T14:07:23;15.20;76.60
53926;DHT22;39836;52.754;6.866;2023-03-23T14:09:51;15.70;76.30
53926;DHT22;39836;52.754;6.866;2023-03-23T14:12:20;16.30;75.10
53926;DHT22;39836;52.754;6.866;2023-03-23T14:14:55;16.70;74.50
53926;DHT22;39836;52.754;6.866;2023-03-23T14:17:25;16.60;74.20
53926;DHT22;39836;52.754;6.866;2023-03-23T14:19:53;16.60;73.80
53926;DHT22;39836;52.754;6.866;2023-03-23T14:22:24;17.10;74.50
53926;DHT22;39836;52.754;6.866;2023-03-23T14:24:53;17.80;73.50
53926;DHT22;39836;52.754;6.866;2023-03-23T14:27:24;18.30;73.50
53926;DHT22;39836;52.754;6.866;2023-03-23T14:30:00;18.80;72.80
53926;DHT22;39836;52.754;6.866;2023-03-23T14:32:29;18.90;70.90
53926;DHT22;39836;52.754;6.866;2023-03-23T14:34:57;19.20;71.30
53926;DHT22;39836;52.754;6.866;2023-03-23T14:37:23;19.40;70.70
53926;DHT22;39836;52.754;6.866;2023-03-23T14:39:51;19.00;70.50
53926;DHT22;39836;52.754;6.866;2023-03-23T14:42:24;18.30;70.90
53926;DHT22;39836;52.754;6.866;2023-03-23T14:44:51;17.40;70.90
53926;DHT22;39836;52.754;6.866;2023-03-23T14:47:23;16.90;71.40
53926;DHT22;39836;52.754;6.866;2023-03-23T14:53:00;16.10;71.70
53926;DHT22;39836;52.754;6.866;2023-03-23T14:55:26;15.90;71.60
53926;DHT22;39836;52.754;6.866;2023-03-23T14:57:54;15.70;72.00
53926;DHT22;39836;52.754;6.866;2023-03-23T15:00:32;15.60;72.10
53926;DHT22;39836;52.754;6.866;2023-03-23T15:02:59;15.20;76.10
53926;DHT22;39836;52.754;6.866;2023-03-23T15:05:35;14.10;78.30
53926;DHT22;39836;52.754;6.866;2023-03-23T15:08:11;13.30;79.70
53926;DHT22;39836;52.754;6.866;2023-03-23T15:10:38;12.80;80.10
53926;DHT22;39836;52.754;6.866;2023-03-23T15:13:04;12.50;80.40
53926;DHT22;39836;52.754;6.866;2023-03-23T15:15:35;12.40;80.50
53926;DHT22;39836;52.754;6.866;2023-03-23T15:18:02;12.30;81.30
53926;DHT22;39836;52.754;6.866;2023-03-23T15:20:47;12.30;81.00
53926;DHT22;39836;52.754;6.866;2023-03-23T15:23:22;12.40;81.30
53926;DHT22;39836;52.754;6.866;2023-03-23T15:25:52;12.40;81.20
53926;DHT22;39836;52.754;6.866;2023-03-23T15:28:19;12.40;81.50
53926;DHT22;39836;52.754;6.866;2023-03-23T15:30:52;12.50;82.40
53926;DHT22;39836;52.754;6.866;2023-03-23T15:33:18;12.60;82.90
53926;DHT22;39836;52.754;6.866;2023-03-23T15:35:52;12.70;83.20
53926;DHT22;39836;52.754;6.866;2023-03-23T15:38:28;12.80;83.30
53926;DHT22;39836;52.754;6.866;2023-03-23T15:40:57;12.90;83.20
53926;DHT22;39836;52.754;6.866;2023-03-23T15:43:30;12.90;83.20
53926;DHT22;39836;52.754;6.866;2023-03-23T15:51:17;12.90;82.70
53926;DHT22;39836;52.754;6.866;2023-03-23T15:53:43;12.90;82.60
53926;DHT22;39836;52.754;6.866;2023-03-23T15:56:11;12.90;82.70
53926;DHT22;39836;52.754;6.866;2023-03-23T15:58:38;12.90;82.80
53926;DHT22;39836;52.754;6.866;2023-03-23T16:01:11;12.90;82.60
53926;DHT22;39836;52.754;6.866;2023-03-23T16:03:47;12.90;82.40
53926;DHT22;39836;52.754;6.866;2023-03-23T16:06:14;13.00;82.20
53926;DHT22;39836;52.754;6.866;2023-03-23T16:08:41;13.00;82.10
53926;DHT22;39836;52.754;6.866;2023-03-23T16:11:10;13.00;81.60
53926;DHT22;39836;52.754;6.866;2023-03-23T16:13:36;12.90;81.10
53926;DHT22;39836;52.754;6.866;2023-03-23T16:16:02;12.80;80.90
53926;DHT22;39836;52.754;6.866;2023-03-23T16:18:29;12.60;80.90
53926;DHT22;39836;52.754;6.866;2023-03-23T16:20:56;12.50;81.10
53926;DHT22;39836;52.754;6.866;2023-03-23T16:23:22;12.50;81.30
53926;DHT22;39836;52.754;6.866;2023-03-23T16:25:48;12.40;81.50
53926;DHT22;39836;52.754;6.866;2023-03-23T16:28:14;12.50;81.70
53926;DHT22;39836;52.754;6.866;2023-03-23T16:30:42;12.50;81.80
53926;DHT22;39836;52.754;6.866;2023-03-23T16:33:09;12.50;81.70
53926;DHT22;39836;52.754;6.866;2023-03-23T16:35:35;12.50;81.70
53926;DHT22;39836;52.754;6.866;2023-03-23T16:38:01;12.40;81.80
53926;DHT22;39836;52.754;6.866;2023-03-23T16:40:27;12.40;82.00
53926;DHT22;39836;52.754;6.866;2023-03-23T16:42:53;12.30;82.10
53926;DHT22;39836;52.754;6.866;2023-03-23T16:45:19;12.30;82.30
53926;DHT22;39836;52.754;6.866;2023-03-23T16:47:45;12.30;82.40
53926;DHT22;39836;52.754;6.866;2023-03-23T16:50:14;12.30;82.40
53926;DHT22;39836;52.754;6.866;2023-03-23T16:52:41;12.30;82.40
53926;DHT22;39836;52.754;6.866;2023-03-23T16:55:09;12.20;82.10
53926;DHT22;39836;52.754;6.866;2023-03-23T16:57:35;12.20;82.10
53926;DHT22;39836;52.754;6.866;2023-03-23T17:00:05;12.10;81.90
53926;DHT22;39836;52.754;6.866;2023-03-23T17:02:31;12.00;81.70
53926;DHT22;39836;52.754;6.866;2023-03-23T17:04:57;11.90;81.60
53926;DHT22;39836;52.754;6.866;2023-03-23T17:07:24;11.80;81.60
53926;DHT22;39836;52.754;6.866;2023-03-23T17:09:50;11.70;81.60
53926;DHT22;39836;52.754;6.866;2023-03-23T17:12:16;11.70;81.60
53926;DHT22;39836;52.754;6.866;2023-03-23T17:14:41;11.70;81.60
53926;DHT22;39836;52.754;6.866;2023-03-23T17:17:07;11.70;81.60
53926;DHT22;39836;52.754;6.866;2023-03-23T17:19:33;11.70;81.60
53926;DHT22;39836;52.754;6.866;2023-03-23T17:21:59;11.70;81.60